sensor_id;sensor_type;location;lat;lon;timestamp;P1;durP1;ratioP1;P2;durP2;ratioP2
47749;SDS011;49810;48.160;10.812;2024-03-02T00:00:10;17.48;;;9.20;;
47749;SDS011;49810;48.160;10.812;2024-03-02T00:01:15;15.27;;;9.23;;
47749;SDS011;49810;48.160;10.812;2024-03-02T00:02:19;15.50;;;9.38;;
47749;SDS011;49810;48.160;10.812;2024-03-02T00:03:21;14.50;;;8.73;;
47749;SDS011;49810;48.160;10.812;2024-03-02T00:04:24;13.30;;;8.35;;
47749;SDS011;49810;48.160;10.812;2024-03-02T00:05:27;15.68;;;9.70;;
47749;SDS011;49810;48.160;10.812;2024-03-02T00:06:29;16.13;;;9.80;;
47749;SDS011;49810;48.160;10.812;2024-03-02T00:07:32;19.23;;;9.48;;
47749;SDS011;49810;48.160;10.812;2024-03-02T00:08:34;17.95;;;10.07;;
47749;SDS011;49810;48.160;10.812;2024-03-02T00:09:37;15.57;;;8.90;;
47749;SDS011;49810;48.160;10.812;2024-03-02T00:10:41;16.35;;;9.00;;
47749;SDS011;49810;48.160;10.812;2024-03-02T00:11:43;19.23;;;9.25;;
47749;SDS011;49810;48.160;10.812;2024-03-02T00:12:47;16.23;;;9.13;;
47749;SDS011;49810;48.160;10.812;2024-03-02T00:13:51;18.60;;;9.38;;
47749;SDS011;49810;48.160;10.812;2024-03-02T00:14:55;19.10;;;9.82;;
47749;SDS011;49810;48.160;10.812;2024-03-02T00:15:57;18.25;;;9.23;;
47749;SDS011;49810;48.160;10.812;2024-03-02T00:17:00;16.55;;;9.50;;
47749;SDS011;49810;48.160;10.812;2024-03-02T00:18:04;17.60;;;9.30;;
47749;SDS011;49810;48.160;10.812;2024-03-02T00:19:07;19.10;;;10.77;;
47749;SDS011;49810;48.160;10.812;2024-03-02T00:20:11;20.90;;;9.75;;
47749;SDS011;49810;48.160;10.812;2024-03-02T00:21:19;17.02;;;9.73;;
47749;SDS011;49810;48.160;10.812;2024-03-02T00:22:24;15.00;;;9.00;;
47749;SDS011;49810;48.160;10.812;2024-03-02T00:23:27;16.27;;;9.15;;
47749;SDS011;49810;48.160;10.812;2024-03-02T00:24:34;16.00;;;9.20;;
47749;SDS011;49810;48.160;10.812;2024-03-02T00:25:37;15.00;;;9.18;;
47749;SDS011;49810;48.160;10.812;2024-03-02T00:26:43;16.35;;;9.60;;
47749;SDS011;49810;48.160;10.812;2024-03-02T00:27:47;14.13;;;8.45;;
47749;SDS011;49810;48.160;10.812;2024-03-02T00:28:50;17.63;;;9.95;;
47749;SDS011;49810;48.160;10.812;2024-03-02T00:29:57;15.55;;;9.23;;
47749;SDS011;49810;48.160;10.812;2024-03-02T00:30:59;18.00;;;10.07;;
47749;SDS011;49810;48.160;10.812;2024-03-02T00:32:03;18.55;;;9.93;;
47749;SDS011;49810;48.160;10.812;2024-03-02T00:33:16;17.92;;;9.70;;
47749;SDS011;49810;48.160;10.812;2024-03-02T00:34:18;16.50;;;9.52;;
47749;SDS011;49810;48.160;10.812;2024-03-02T00:35:21;18.52;;;9.88;;
47749;SDS011;49810;48.160;10.812;2024-03-02T00:36:25;17.65;;;9.73;;
47749;SDS011;49810;48.160;10.812;2024-03-02T00:37:29;16.98;;;10.13;;
47749;SDS011;49810;48.160;10.812;2024-03-02T00:38:31;16.83;;;9.93;;
47749;SDS011;49810;48.160;10.812;2024-03-02T00:39:35;17.38;;;10.15;;
47749;SDS011;49810;48.160;10.812;2024-03-02T00:40:37;16.33;;;9.40;;
47749;SDS011;49810;48.160;10.812;2024-03-02T00:41:40;17.50;;;10.50;;
47749;SDS011;49810;48.160;10.812;2024-03-02T00:42:44;16.55;;;10.20;;
47749;SDS011;49810;48.160;10.812;2024-03-02T00:43:47;16.00;;;9.68;;
47749;SDS011;49810;48.160;10.812;2024-03-02T00:44:53;15.80;;;8.70;;
47749;SDS011;49810;48.160;10.812;2024-03-02T00:45:56;16.10;;;9.77;;
47749;SDS011;49810;48.160;10.812;2024-03-02T00:46:59;15.93;;;9.65;;
47749;SDS011;49810;48.160;10.812;2024-03-02T00:48:02;16.40;;;9.27;;
47749;SDS011;49810;48.160;10.812;2024-03-02T00:49:11;17.30;;;9.05;;
47749;SDS011;49810;48.160;10.812;2024-03-02T00:50:21;16.98;;;9.50;;
47749;SDS011;49810;48.160;10.812;2024-03-02T00:51:32;16.95;;;9.35;;
47749;SDS011;49810;48.160;10.812;2024-03-02T00:52:37;16.30;;;9.73;;
47749;SDS011;49810;48.160;10.812;2024-03-02T00:53:39;15.38;;;9.13;;
47749;SDS011;49810;48.160;10.812;2024-03-02T00:54:41;17.63;;;9.90;;
47749;SDS011;49810;48.160;10.812;2024-03-02T00:55:46;20.17;;;9.45;;
47749;SDS011;49810;48.160;10.812;2024-03-02T00:56:49;17.02;;;8.98;;
47749;SDS011;49810;48.160;10.812;2024-03-02T00:57:52;18.80;;;10.85;;
47749;SDS011;49810;48.160;10.812;2024-03-02T00:58:55;19.70;;;10.20;;
47749;SDS011;49810;48.160;10.812;2024-03-02T00:59:58;16.55;;;9.85;;
47749;SDS011;49810;48.160;10.812;2024-03-02T01:01:00;14.88;;;8.88;;
47749;SDS011;49810;48.160;10.812;2024-03-02T01:02:02;18.85;;;10.45;;
47749;SDS011;49810;48.160;10.812;2024-03-02T01:03:05;15.60;;;9.73;;
47749;SDS011;49810;48.160;10.812;2024-03-02T01:04:10;16.60;;;9.32;;
47749;SDS011;49810;48.160;10.812;2024-03-02T01:05:15;18.40;;;9.45;;
47749;SDS011;49810;48.160;10.812;2024-03-02T01:06:17;19.15;;;9.50;;
47749;SDS011;49810;48.160;10.812;2024-03-02T01:07:21;18.50;;;9.57;;
47749;SDS011;49810;48.160;10.812;2024-03-02T01:08:23;14.27;;;8.90;;
47749;SDS011;49810;48.160;10.812;2024-03-02T01:09:25;15.60;;;9.20;;
47749;SDS011;49810;48.160;10.812;2024-03-02T01:10:28;14.60;;;8.70;;
47749;SDS011;49810;48.160;10.812;2024-03-02T01:11:30;15.13;;;8.63;;
47749;SDS011;49810;48.160;10.812;2024-03-02T01:12:33;15.20;;;9.35;;
47749;SDS011;49810;48.160;10.812;2024-03-02T01:13:36;15.60;;;9.18;;
47749;SDS011;49810;48.160;10.812;2024-03-02T01:14:39;14.98;;;9.13;;
47749;SDS011;49810;48.160;10.812;2024-03-02T01:15:41;14.75;;;8.82;;
47749;SDS011;49810;48.160;10.812;2024-03-02T01:16:43;15.70;;;9.30;;
47749;SDS011;49810;48.160;10.812;2024-03-02T01:17:46;14.60;;;8.82;;
47749;SDS011;49810;48.160;10.812;2024-03-02T01:18:48;18.27;;;8.75;;
47749;SDS011;49810;48.160;10.812;2024-03-02T01:19:53;13.57;;;8.38;;
47749;SDS011;49810;48.160;10.812;2024-03-02T01:20:55;14.25;;;8.93;;
47749;SDS011;49810;48.160;10.812;2024-03-02T01:21:58;18.67;;;9.30;;
47749;SDS011;49810;48.160;10.812;2024-03-02T01:23:00;15.52;;;9.70;;
47749;SDS011;49810;48.160;10.812;2024-03-02T01:24:03;15.68;;;8.35;;
47749;SDS011;49810;48.160;10.812;2024-03-02T01:25:06;15.73;;;8.95;;
47749;SDS011;49810;48.160;10.812;2024-03-02T01:26:11;16.40;;;9.32;;
47749;SDS011;49810;48.160;10.812;2024-03-02T01:27:13;19.35;;;9.88;;
47749;SDS011;49810;48.160;10.812;2024-03-02T01:28:16;16.80;;;9.10;;
47749;SDS011;49810;48.160;10.812;2024-03-02T01:29:19;14.80;;;9.13;;
47749;SDS011;49810;48.160;10.812;2024-03-02T01:30:22;17.52;;;9.25;;
47749;SDS011;49810;48.160;10.812;2024-03-02T01:31:24;16.58;;;9.48;;
47749;SDS011;49810;48.160;10.812;2024-03-02T01:32:26;13.90;;;9.10;;
47749;SDS011;49810;48.160;10.812;2024-03-02T01:33:29;17.52;;;10.00;;
47749;SDS011;49810;48.160;10.812;2024-03-02T01:34:31;15.98;;;8.88;;
47749;SDS011;49810;48.160;10.812;2024-03-02T01:35:36;14.88;;;9.07;;
47749;SDS011;49810;48.160;10.812;2024-03-02T01:36:38;16.80;;;9.73;;
47749;SDS011;49810;48.160;10.812;2024-03-02T01:37:41;17.70;;;9.32;;
47749;SDS011;49810;48.160;10.812;2024-03-02T01:38:44;14.43;;;9.20;;
47749;SDS011;49810;48.160;10.812;2024-03-02T01:39:47;19.75;;;9.07;;
47749;SDS011;49810;48.160;10.812;2024-03-02T01:40:49;14.57;;;8.95;;
47749;SDS011;49810;48.160;10.812;2024-03-02T01:41:53;16.90;;;9.30;;
47749;SDS011;49810;48.160;10.812;2024-03-02T01:42:55;15.70;;;9.27;;
47749;SDS011;49810;48.160;10.812;2024-03-02T01:43:59;19.05;;;10.02;;
47749;SDS011;49810;48.160;10.812;2024-03-02T01:45:01;16.83;;;9.30;;
47749;SDS011;49810;48.160;10.812;2024-03-02T01:46:05;18.33;;;9.40;;
47749;SDS011;49810;48.160;10.812;2024-03-02T01:47:07;14.40;;;9.00;;
47749;SDS011;49810;48.160;10.812;2024-03-02T01:48:10;16.95;;;10.18;;
47749;SDS011;49810;48.160;10.812;2024-03-02T01:49:12;16.30;;;10.10;;
47749;SDS011;49810;48.160;10.812;2024-03-02T01:50:16;16.67;;;9.55;;
47749;SDS011;49810;48.160;10.812;2024-03-02T01:51:27;14.77;;;8.77;;
47749;SDS011;49810;48.160;10.812;2024-03-02T01:52:30;16.08;;;9.23;;
47749;SDS011;49810;48.160;10.812;2024-03-02T01:53:32;17.75;;;10.15;;
47749;SDS011;49810;48.160;10.812;2024-03-02T01:54:35;14.93;;;9.00;;
47749;SDS011;49810;48.160;10.812;2024-03-02T01:55:37;15.88;;;9.77;;
47749;SDS011;49810;48.160;10.812;2024-03-02T01:56:40;14.32;;;9.38;;
47749;SDS011;49810;48.160;10.812;2024-03-02T01:57:42;16.42;;;9.95;;
47749;SDS011;49810;48.160;10.812;2024-03-02T01:58:46;18.25;;;9.30;;
47749;SDS011;49810;48.160;10.812;2024-03-02T01:59:49;14.82;;;8.98;;
47749;SDS011;49810;48.160;10.812;2024-03-02T02:00:52;16.15;;;10.25;;
47749;SDS011;49810;48.160;10.812;2024-03-02T02:01:55;16.77;;;9.68;;
47749;SDS011;49810;48.160;10.812;2024-03-02T02:02:57;17.10;;;9.43;;
47749;SDS011;49810;48.160;10.812;2024-03-02T02:04:00;14.20;;;9.32;;
47749;SDS011;49810;48.160;10.812;2024-03-02T02:05:03;14.25;;;8.77;;
47749;SDS011;49810;48.160;10.812;2024-03-02T02:06:07;14.82;;;8.82;;
47749;SDS011;49810;48.160;10.812;2024-03-02T02:07:11;14.23;;;8.00;;
47749;SDS011;49810;48.160;10.812;2024-03-02T02:08:15;14.25;;;8.30;;
47749;SDS011;49810;48.160;10.812;2024-03-02T02:09:18;14.98;;;8.65;;
47749;SDS011;49810;48.160;10.812;2024-03-02T02:10:21;15.80;;;9.18;;
47749;SDS011;49810;48.160;10.812;2024-03-02T02:11:24;12.18;;;8.00;;
47749;SDS011;49810;48.160;10.812;2024-03-02T02:12:27;14.85;;;9.60;;
47749;SDS011;49810;48.160;10.812;2024-03-02T02:13:29;16.30;;;8.93;;
47749;SDS011;49810;48.160;10.812;2024-03-02T02:14:32;15.88;;;9.30;;
47749;SDS011;49810;48.160;10.812;2024-03-02T02:15:34;14.80;;;8.88;;
47749;SDS011;49810;48.160;10.812;2024-03-02T02:16:38;17.95;;;9.77;;
47749;SDS011;49810;48.160;10.812;2024-03-02T02:17:40;15.35;;;9.30;;
47749;SDS011;49810;48.160;10.812;2024-03-02T02:18:43;17.08;;;9.60;;
47749;SDS011;49810;48.160;10.812;2024-03-02T02:19:45;15.73;;;9.23;;
47749;SDS011;49810;48.160;10.812;2024-03-02T02:20:48;15.15;;;8.88;;
47749;SDS011;49810;48.160;10.812;2024-03-02T02:21:51;13.90;;;8.65;;
47749;SDS011;49810;48.160;10.812;2024-03-02T02:22:55;16.73;;;9.40;;
47749;SDS011;49810;48.160;10.812;2024-03-02T02:23:58;14.82;;;8.80;;
47749;SDS011;49810;48.160;10.812;2024-03-02T02:25:01;18.85;;;9.52;;
47749;SDS011;49810;48.160;10.812;2024-03-02T02:26:03;17.08;;;9.48;;
47749;SDS011;49810;48.160;10.812;2024-03-02T02:27:06;16.50;;;9.75;;
47749;SDS011;49810;48.160;10.812;2024-03-02T02:28:08;18.27;;;10.10;;
47749;SDS011;49810;48.160;10.812;2024-03-02T02:29:11;16.70;;;9.70;;
47749;SDS011;49810;48.160;10.812;2024-03-02T02:30:13;16.52;;;10.00;;
47749;SDS011;49810;48.160;10.812;2024-03-02T02:31:20;19.55;;;10.27;;
47749;SDS011;49810;48.160;10.812;2024-03-02T02:32:23;17.35;;;10.23;;
47749;SDS011;49810;48.160;10.812;2024-03-02T02:33:25;16.30;;;9.85;;
47749;SDS011;49810;48.160;10.812;2024-03-02T02:34:28;16.92;;;9.52;;
47749;SDS011;49810;48.160;10.812;2024-03-02T02:35:30;15.07;;;9.57;;
47749;SDS011;49810;48.160;10.812;2024-03-02T02:36:33;15.10;;;9.82;;
47749;SDS011;49810;48.160;10.812;2024-03-02T02:37:40;16.38;;;9.95;;
47749;SDS011;49810;48.160;10.812;2024-03-02T02:38:44;15.43;;;9.57;;
47749;SDS011;49810;48.160;10.812;2024-03-02T02:39:50;15.73;;;9.30;;
47749;SDS011;49810;48.160;10.812;2024-03-02T02:40:52;15.40;;;9.27;;
47749;SDS011;49810;48.160;10.812;2024-03-02T02:41:55;16.10;;;9.98;;
47749;SDS011;49810;48.160;10.812;2024-03-02T02:42:57;17.15;;;9.85;;
47749;SDS011;49810;48.160;10.812;2024-03-02T02:44:01;14.38;;;9.25;;
47749;SDS011;49810;48.160;10.812;2024-03-02T02:45:03;16.08;;;9.77;;
47749;SDS011;49810;48.160;10.812;2024-03-02T02:46:07;15.48;;;9.55;;
47749;SDS011;49810;48.160;10.812;2024-03-02T02:47:09;14.43;;;9.18;;
47749;SDS011;49810;48.160;10.812;2024-03-02T02:48:12;14.77;;;9.55;;
47749;SDS011;49810;48.160;10.812;2024-03-02T02:49:14;15.50;;;8.80;;
47749;SDS011;49810;48.160;10.812;2024-03-02T02:50:17;16.52;;;9.25;;
47749;SDS011;49810;48.160;10.812;2024-03-02T02:51:19;14.35;;;9.25;;
47749;SDS011;49810;48.160;10.812;2024-03-02T02:52:22;13.85;;;9.07;;
47749;SDS011;49810;48.160;10.812;2024-03-02T02:53:25;14.48;;;8.98;;
47749;SDS011;49810;48.160;10.812;2024-03-02T02:54:28;15.43;;;9.40;;
47749;SDS011;49810;48.160;10.812;2024-03-02T02:55:30;15.18;;;9.27;;
47749;SDS011;49810;48.160;10.812;2024-03-02T02:56:33;15.57;;;9.45;;
47749;SDS011;49810;48.160;10.812;2024-03-02T02:57:36;16.15;;;9.68;;
47749;SDS011;49810;48.160;10.812;2024-03-02T02:58:40;15.23;;;9.98;;
47749;SDS011;49810;48.160;10.812;2024-03-02T02:59:42;16.27;;;9.82;;
47749;SDS011;49810;48.160;10.812;2024-03-02T03:00:46;16.88;;;10.23;;
47749;SDS011;49810;48.160;10.812;2024-03-02T03:01:48;15.82;;;9.00;;
47749;SDS011;49810;48.160;10.812;2024-03-02T03:02:51;16.77;;;10.10;;
47749;SDS011;49810;48.160;10.812;2024-03-02T03:03:53;16.85;;;9.98;;
47749;SDS011;49810;48.160;10.812;2024-03-02T03:04:56;16.75;;;10.18;;
47749;SDS011;49810;48.160;10.812;2024-03-02T03:05:58;17.55;;;9.65;;
47749;SDS011;49810;48.160;10.812;2024-03-02T03:07:01;17.60;;;9.98;;
47749;SDS011;49810;48.160;10.812;2024-03-02T03:08:03;16.40;;;9.98;;
47749;SDS011;49810;48.160;10.812;2024-03-02T03:09:08;15.13;;;9.98;;
47749;SDS011;49810;48.160;10.812;2024-03-02T03:10:12;17.40;;;10.63;;
47749;SDS011;49810;48.160;10.812;2024-03-02T03:12:18;15.57;;;8.90;;
47749;SDS011;49810;48.160;10.812;2024-03-02T03:13:21;14.63;;;9.15;;
47749;SDS011;49810;48.160;10.812;2024-03-02T03:14:23;15.82;;;10.10;;
47749;SDS011;49810;48.160;10.812;2024-03-02T03:15:26;16.63;;;10.63;;
47749;SDS011;49810;48.160;10.812;2024-03-02T03:16:28;17.33;;;10.32;;
47749;SDS011;49810;48.160;10.812;2024-03-02T03:17:31;15.02;;;8.70;;
47749;SDS011;49810;48.160;10.812;2024-03-02T03:18:33;17.30;;;9.82;;
47749;SDS011;49810;48.160;10.812;2024-03-02T03:19:37;15.07;;;9.70;;
47749;SDS011;49810;48.160;10.812;2024-03-02T03:20:40;15.50;;;8.60;;
47749;SDS011;49810;48.160;10.812;2024-03-02T03:21:43;13.93;;;9.23;;
47749;SDS011;49810;48.160;10.812;2024-03-02T03:22:45;17.83;;;10.02;;
47749;SDS011;49810;48.160;10.812;2024-03-02T03:23:48;16.23;;;10.38;;
47749;SDS011;49810;48.160;10.812;2024-03-02T03:24:51;13.77;;;8.07;;
47749;SDS011;49810;48.160;10.812;2024-03-02T03:25:55;14.05;;;8.55;;
47749;SDS011;49810;48.160;10.812;2024-03-02T03:26:57;13.85;;;8.93;;
47749;SDS011;49810;48.160;10.812;2024-03-02T03:28:00;13.48;;;8.65;;
47749;SDS011;49810;48.160;10.812;2024-03-02T03:29:04;15.13;;;8.82;;
47749;SDS011;49810;48.160;10.812;2024-03-02T03:30:08;14.10;;;9.02;;
47749;SDS011;49810;48.160;10.812;2024-03-02T03:31:11;12.25;;;8.30;;
47749;SDS011;49810;48.160;10.812;2024-03-02T03:32:14;13.13;;;8.05;;
47749;SDS011;49810;48.160;10.812;2024-03-02T03:33:16;14.20;;;8.63;;
47749;SDS011;49810;48.160;10.812;2024-03-02T03:34:18;11.82;;;7.70;;
47749;SDS011;49810;48.160;10.812;2024-03-02T03:35:21;12.68;;;8.05;;
47749;SDS011;49810;48.160;10.812;2024-03-02T03:36:24;14.98;;;8.45;;
47749;SDS011;49810;48.160;10.812;2024-03-02T03:37:27;12.80;;;7.60;;
47749;SDS011;49810;48.160;10.812;2024-03-02T03:38:34;16.27;;;9.60;;
47749;SDS011;49810;48.160;10.812;2024-03-02T03:39:37;20.27;;;13.52;;
47749;SDS011;49810;48.160;10.812;2024-03-02T03:40:41;16.35;;;9.52;;
47749;SDS011;49810;48.160;10.812;2024-03-02T03:41:44;14.85;;;9.40;;
47749;SDS011;49810;48.160;10.812;2024-03-02T03:42:46;14.23;;;9.23;;
47749;SDS011;49810;48.160;10.812;2024-03-02T03:43:48;13.00;;;8.50;;
47749;SDS011;49810;48.160;10.812;2024-03-02T03:44:51;14.00;;;8.13;;
47749;SDS011;49810;48.160;10.812;2024-03-02T03:45:53;13.93;;;8.70;;
47749;SDS011;49810;48.160;10.812;2024-03-02T03:46:56;14.25;;;8.68;;
47749;SDS011;49810;48.160;10.812;2024-03-02T03:47:58;12.57;;;8.27;;
47749;SDS011;49810;48.160;10.812;2024-03-02T03:49:01;12.05;;;8.18;;
47749;SDS011;49810;48.160;10.812;2024-03-02T03:50:03;11.40;;;8.10;;
47749;SDS011;49810;48.160;10.812;2024-03-02T03:51:09;14.13;;;8.15;;
47749;SDS011;49810;48.160;10.812;2024-03-02T03:52:12;10.82;;;7.25;;
47749;SDS011;49810;48.160;10.812;2024-03-02T03:53:14;11.52;;;8.00;;
47749;SDS011;49810;48.160;10.812;2024-03-02T03:54:17;14.23;;;7.65;;
47749;SDS011;49810;48.160;10.812;2024-03-02T03:55:19;12.82;;;7.95;;
47749;SDS011;49810;48.160;10.812;2024-03-02T03:56:23;13.10;;;7.97;;
47749;SDS011;49810;48.160;10.812;2024-03-02T03:57:25;11.63;;;7.90;;
47749;SDS011;49810;48.160;10.812;2024-03-02T03:58:28;12.75;;;8.25;;
47749;SDS011;49810;48.160;10.812;2024-03-02T03:59:30;11.82;;;7.25;;
47749;SDS011;49810;48.160;10.812;2024-03-02T04:00:33;13.50;;;7.68;;
47749;SDS011;49810;48.160;10.812;2024-03-02T04:01:35;12.65;;;8.23;;
47749;SDS011;49810;48.160;10.812;2024-03-02T04:03:41;10.70;;;6.93;;
47749;SDS011;49810;48.160;10.812;2024-03-02T04:04:44;11.02;;;7.38;;
47749;SDS011;49810;48.160;10.812;2024-03-02T04:05:46;13.57;;;8.10;;
47749;SDS011;49810;48.160;10.812;2024-03-02T04:06:49;14.57;;;8.80;;
47749;SDS011;49810;48.160;10.812;2024-03-02T04:07:52;12.30;;;8.27;;
47749;SDS011;49810;48.160;10.812;2024-03-02T04:08:55;16.05;;;9.15;;
47749;SDS011;49810;48.160;10.812;2024-03-02T04:09:57;15.68;;;8.55;;
47749;SDS011;49810;48.160;10.812;2024-03-02T04:11:00;15.55;;;9.00;;
47749;SDS011;49810;48.160;10.812;2024-03-02T04:12:06;15.55;;;9.30;;
47749;SDS011;49810;48.160;10.812;2024-03-02T04:13:09;17.67;;;9.93;;
47749;SDS011;49810;48.160;10.812;2024-03-02T04:14:11;16.77;;;9.93;;
47749;SDS011;49810;48.160;10.812;2024-03-02T04:15:14;15.98;;;10.05;;
47749;SDS011;49810;48.160;10.812;2024-03-02T04:16:16;18.35;;;10.35;;
47749;SDS011;49810;48.160;10.812;2024-03-02T04:17:20;15.75;;;9.75;;
47749;SDS011;49810;48.160;10.812;2024-03-02T04:18:22;17.77;;;9.75;;
47749;SDS011;49810;48.160;10.812;2024-03-02T04:19:25;17.33;;;9.82;;
47749;SDS011;49810;48.160;10.812;2024-03-02T04:20:27;15.20;;;9.40;;
47749;SDS011;49810;48.160;10.812;2024-03-02T04:22:33;15.38;;;8.23;;
47749;SDS011;49810;48.160;10.812;2024-03-02T04:23:37;13.00;;;8.68;;
47749;SDS011;49810;48.160;10.812;2024-03-02T04:24:39;14.65;;;9.23;;
47749;SDS011;49810;48.160;10.812;2024-03-02T04:25:42;16.38;;;9.32;;
47749;SDS011;49810;48.160;10.812;2024-03-02T04:26:44;17.25;;;9.07;;
47749;SDS011;49810;48.160;10.812;2024-03-02T04:27:49;14.38;;;9.65;;
47749;SDS011;49810;48.160;10.812;2024-03-02T04:28:51;16.17;;;8.52;;
47749;SDS011;49810;48.160;10.812;2024-03-02T04:29:54;12.32;;;7.93;;
47749;SDS011;49810;48.160;10.812;2024-03-02T04:30:56;16.05;;;8.70;;
47749;SDS011;49810;48.160;10.812;2024-03-02T04:31:59;14.32;;;8.70;;
47749;SDS011;49810;48.160;10.812;2024-03-02T04:33:01;13.20;;;8.23;;
47749;SDS011;49810;48.160;10.812;2024-03-02T04:34:05;15.50;;;9.13;;
47749;SDS011;49810;48.160;10.812;2024-03-02T04:35:07;13.05;;;8.10;;
47749;SDS011;49810;48.160;10.812;2024-03-02T04:36:11;13.85;;;8.82;;
47749;SDS011;49810;48.160;10.812;2024-03-02T04:37:14;15.38;;;9.40;;
47749;SDS011;49810;48.160;10.812;2024-03-02T04:38:16;14.07;;;9.20;;
47749;SDS011;49810;48.160;10.812;2024-03-02T04:39:19;14.10;;;8.27;;
47749;SDS011;49810;48.160;10.812;2024-03-02T04:40:21;13.13;;;7.72;;
47749;SDS011;49810;48.160;10.812;2024-03-02T04:41:24;13.02;;;8.48;;
47749;SDS011;49810;48.160;10.812;2024-03-02T04:42:27;15.05;;;9.25;;
47749;SDS011;49810;48.160;10.812;2024-03-02T04:43:31;13.50;;;8.43;;
47749;SDS011;49810;48.160;10.812;2024-03-02T04:44:33;12.93;;;7.55;;
47749;SDS011;49810;48.160;10.812;2024-03-02T04:45:37;10.68;;;7.50;;
47749;SDS011;49810;48.160;10.812;2024-03-02T04:46:40;12.65;;;7.28;;
47749;SDS011;49810;48.160;10.812;2024-03-02T04:47:43;13.77;;;8.07;;
47749;SDS011;49810;48.160;10.812;2024-03-02T04:48:48;12.35;;;7.65;;
47749;SDS011;49810;48.160;10.812;2024-03-02T04:49:56;10.10;;;6.93;;
47749;SDS011;49810;48.160;10.812;2024-03-02T04:50:59;14.23;;;7.88;;
47749;SDS011;49810;48.160;10.812;2024-03-02T04:52:02;14.05;;;8.68;;
47749;SDS011;49810;48.160;10.812;2024-03-02T04:53:04;14.65;;;8.77;;
47749;SDS011;49810;48.160;10.812;2024-03-02T04:54:08;12.98;;;8.38;;
47749;SDS011;49810;48.160;10.812;2024-03-02T04:55:10;15.35;;;8.98;;
47749;SDS011;49810;48.160;10.812;2024-03-02T04:56:31;12.65;;;8.93;;
47749;SDS011;49810;48.160;10.812;2024-03-02T04:57:46;17.30;;;9.15;;
47749;SDS011;49810;48.160;10.812;2024-03-02T04:58:50;14.10;;;8.98;;
47749;SDS011;49810;48.160;10.812;2024-03-02T04:59:52;14.55;;;8.27;;
47749;SDS011;49810;48.160;10.812;2024-03-02T05:00:55;14.45;;;8.45;;
47749;SDS011;49810;48.160;10.812;2024-03-02T05:01:58;14.93;;;8.07;;
47749;SDS011;49810;48.160;10.812;2024-03-02T05:03:01;12.98;;;8.63;;
47749;SDS011;49810;48.160;10.812;2024-03-02T05:04:04;13.60;;;8.40;;
47749;SDS011;49810;48.160;10.812;2024-03-02T05:05:07;16.42;;;8.43;;
47749;SDS011;49810;48.160;10.812;2024-03-02T05:06:09;15.77;;;8.52;;
47749;SDS011;49810;48.160;10.812;2024-03-02T05:07:12;16.52;;;9.10;;
47749;SDS011;49810;48.160;10.812;2024-03-02T05:08:14;15.07;;;9.40;;
47749;SDS011;49810;48.160;10.812;2024-03-02T05:09:18;17.40;;;10.40;;
47749;SDS011;49810;48.160;10.812;2024-03-02T05:10:20;14.98;;;8.57;;
47749;SDS011;49810;48.160;10.812;2024-03-02T05:11:23;15.95;;;8.88;;
47749;SDS011;49810;48.160;10.812;2024-03-02T05:12:44;14.23;;;8.50;;
47749;SDS011;49810;48.160;10.812;2024-03-02T05:14:00;14.35;;;8.35;;
47749;SDS011;49810;48.160;10.812;2024-03-02T05:15:03;15.38;;;9.18;;
47749;SDS011;49810;48.160;10.812;2024-03-02T05:16:06;15.63;;;9.65;;
47749;SDS011;49810;48.160;10.812;2024-03-02T05:17:09;18.88;;;10.95;;
47749;SDS011;49810;48.160;10.812;2024-03-02T05:18:11;20.25;;;12.25;;
47749;SDS011;49810;48.160;10.812;2024-03-02T05:19:14;18.10;;;10.48;;
47749;SDS011;49810;48.160;10.812;2024-03-02T05:20:16;19.70;;;10.73;;
47749;SDS011;49810;48.160;10.812;2024-03-02T05:21:18;20.10;;;10.65;;
47749;SDS011;49810;48.160;10.812;2024-03-02T05:22:21;20.88;;;12.18;;
47749;SDS011;49810;48.160;10.812;2024-03-02T05:23:23;19.08;;;11.02;;
47749;SDS011;49810;48.160;10.812;2024-03-02T05:24:26;19.00;;;11.40;;
47749;SDS011;49810;48.160;10.812;2024-03-02T05:25:29;17.80;;;10.32;;
47749;SDS011;49810;48.160;10.812;2024-03-02T05:26:32;16.55;;;10.25;;
47749;SDS011;49810;48.160;10.812;2024-03-02T05:27:34;19.45;;;10.52;;
47749;SDS011;49810;48.160;10.812;2024-03-02T05:28:37;19.85;;;10.38;;
47749;SDS011;49810;48.160;10.812;2024-03-02T05:29:41;17.00;;;9.73;;
47749;SDS011;49810;48.160;10.812;2024-03-02T05:30:44;17.45;;;10.45;;
47749;SDS011;49810;48.160;10.812;2024-03-02T05:31:46;16.17;;;10.27;;
47749;SDS011;49810;48.160;10.812;2024-03-02T05:32:49;15.57;;;9.05;;
47749;SDS011;49810;48.160;10.812;2024-03-02T05:33:51;17.25;;;9.88;;
47749;SDS011;49810;48.160;10.812;2024-03-02T05:34:58;14.27;;;9.00;;
47749;SDS011;49810;48.160;10.812;2024-03-02T05:36:00;16.98;;;9.30;;
47749;SDS011;49810;48.160;10.812;2024-03-02T05:37:04;15.90;;;8.93;;
47749;SDS011;49810;48.160;10.812;2024-03-02T05:38:06;14.02;;;9.18;;
47749;SDS011;49810;48.160;10.812;2024-03-02T05:39:10;16.08;;;8.90;;
47749;SDS011;49810;48.160;10.812;2024-03-02T05:40:12;14.30;;;8.45;;
47749;SDS011;49810;48.160;10.812;2024-03-02T05:41:15;11.85;;;7.75;;
47749;SDS011;49810;48.160;10.812;2024-03-02T05:42:17;15.98;;;8.68;;
47749;SDS011;49810;48.160;10.812;2024-03-02T05:43:20;12.93;;;7.38;;
47749;SDS011;49810;48.160;10.812;2024-03-02T05:44:23;15.90;;;8.32;;
47749;SDS011;49810;48.160;10.812;2024-03-02T05:45:27;13.60;;;7.50;;
47749;SDS011;49810;48.160;10.812;2024-03-02T05:46:30;14.40;;;8.48;;
47749;SDS011;49810;48.160;10.812;2024-03-02T05:47:32;17.00;;;8.77;;
47749;SDS011;49810;48.160;10.812;2024-03-02T05:48:35;15.02;;;9.75;;
47749;SDS011;49810;48.160;10.812;2024-03-02T05:49:37;13.23;;;8.00;;
47749;SDS011;49810;48.160;10.812;2024-03-02T05:50:41;15.05;;;9.05;;
47749;SDS011;49810;48.160;10.812;2024-03-02T05:51:43;13.05;;;8.55;;
47749;SDS011;49810;48.160;10.812;2024-03-02T05:52:46;15.48;;;9.20;;
47749;SDS011;49810;48.160;10.812;2024-03-02T05:53:48;16.95;;;10.32;;
47749;SDS011;49810;48.160;10.812;2024-03-02T05:54:51;15.80;;;9.07;;
47749;SDS011;49810;48.160;10.812;2024-03-02T05:55:53;13.10;;;8.82;;
47749;SDS011;49810;48.160;10.812;2024-03-02T05:56:57;16.50;;;9.27;;
47749;SDS011;49810;48.160;10.812;2024-03-02T05:58:18;16.33;;;9.30;;
47749;SDS011;49810;48.160;10.812;2024-03-02T05:59:29;17.13;;;9.18;;
47749;SDS011;49810;48.160;10.812;2024-03-02T06:00:33;16.45;;;9.57;;
47749;SDS011;49810;48.160;10.812;2024-03-02T06:01:36;14.88;;;9.02;;
47749;SDS011;49810;48.160;10.812;2024-03-02T06:02:38;15.85;;;9.40;;
47749;SDS011;49810;48.160;10.812;2024-03-02T06:04:44;12.95;;;7.82;;
47749;SDS011;49810;48.160;10.812;2024-03-02T06:05:47;13.63;;;8.65;;
47749;SDS011;49810;48.160;10.812;2024-03-02T06:07:56;16.20;;;8.15;;
47749;SDS011;49810;48.160;10.812;2024-03-02T06:08:58;13.43;;;8.38;;
47749;SDS011;49810;48.160;10.812;2024-03-02T06:10:01;18.45;;;9.40;;
47749;SDS011;49810;48.160;10.812;2024-03-02T06:11:04;15.68;;;9.65;;
47749;SDS011;49810;48.160;10.812;2024-03-02T06:12:07;17.73;;;11.30;;
47749;SDS011;49810;48.160;10.812;2024-03-02T06:13:09;18.50;;;9.43;;
47749;SDS011;49810;48.160;10.812;2024-03-02T06:14:11;16.48;;;9.27;;